createdAt,value
2023-04-14T00:00:30.195Z,20.82
2023-04-14T00:01:30.536Z,20.85
2023-04-14T00:02:30.334Z,20.82
2023-04-14T00:03:30.406Z,20.81
2023-04-14T00:05:30.450Z,20.76
2023-04-14T00:06:30.371Z,20.78
2023-04-14T00:07:30.405Z,20.73
2023-04-14T00:09:30.716Z,20.75
2023-04-14T00:11:30.543Z,20.75
2023-04-14T00:12:30.546Z,20.71
2023-04-14T00:14:30.608Z,20.71
2023-04-14T00:15:30.642Z,20.73
2023-04-14T00:16:30.948Z,20.73
2023-04-14T00:17:30.712Z,20.75
2023-04-14T00:18:30.727Z,20.69
2023-04-14T00:19:30.764Z,20.71
2023-04-14T00:21:30.816Z,20.64
2023-04-14T00:22:30.852Z,20.61
2023-04-14T00:23:31.180Z,20.72
2023-04-14T00:24:30.908Z,20.71
2023-04-14T00:25:30.937Z,20.71
2023-04-14T00:26:30.969Z,20.63
2023-04-14T00:27:31.037Z,20.63
2023-04-14T00:28:31.024Z,20.73
2023-04-14T00:29:31.051Z,20.64
2023-04-14T00:30:31.382Z,20.61
2023-04-14T00:31:31.173Z,20.66
2023-04-14T00:33:31.186Z,20.57
2023-04-14T00:34:31.204Z,20.63
2023-04-14T00:39:31.615Z,20.58
2023-04-14T00:42:31.438Z,20.61
2023-04-14T00:43:31.485Z,20.61
2023-04-14T00:44:31.497Z,20.54
2023-04-14T00:45:31.528Z,20.58
2023-04-14T00:46:31.892Z,20.57
2023-04-14T00:47:31.700Z,20.58
2023-04-14T00:48:31.614Z,20.57
2023-04-14T00:49:31.648Z,20.57
2023-04-14T00:51:31.699Z,20.53
2023-04-14T00:52:31.734Z,20.46
2023-04-14T00:53:32.027Z,20.57
2023-04-14T00:55:31.819Z,20.44
2023-04-14T00:56:31.855Z,20.42
2023-04-14T00:57:31.890Z,20.48
2023-04-14T00:58:31.919Z,20.41
2023-04-14T00:59:31.958Z,20.42
2023-04-14T01:00:32.220Z,20.51
2023-04-14T01:01:32.045Z,20.46
2023-04-14T01:02:32.147Z,20.48
2023-04-14T01:03:32.157Z,20.46
2023-04-14T01:04:45.139Z,20.50
2023-04-14T01:05:32.122Z,20.44
2023-04-14T01:09:32.530Z,20.42
2023-04-14T01:11:32.292Z,20.50
2023-04-14T01:12:32.332Z,20.41
2023-04-14T01:13:32.345Z,20.44
2023-04-14T01:14:32.386Z,20.44
2023-04-14T01:15:32.683Z,20.48
2023-04-14T01:16:32.483Z,20.51
2023-04-14T01:17:32.516Z,20.42
2023-04-14T01:18:32.499Z,20.37
2023-04-14T01:19:32.521Z,20.40
2023-04-14T01:20:32.563Z,20.41
2023-04-14T01:21:32.586Z,20.37
2023-04-14T01:22:32.920Z,20.40
2023-04-14T01:23:32.756Z,20.41
2023-04-14T01:25:32.702Z,20.30
2023-04-14T01:27:32.759Z,20.33
2023-04-14T01:28:32.803Z,20.31
2023-04-14T01:29:33.125Z,20.34
2023-04-14T01:30:32.854Z,20.27
2023-04-14T01:31:32.950Z,20.30
2023-04-14T01:32:33.035Z,20.30
2023-04-14T01:33:32.935Z,20.26
2023-04-14T01:34:32.971Z,20.27
2023-04-14T01:35:32.999Z,20.35
2023-04-14T01:36:33.336Z,20.31
2023-04-14T01:37:33.055Z,20.31
2023-04-14T01:38:33.158Z,20.34
2023-04-14T01:39:33.128Z,20.31
2023-04-14T01:40:33.159Z,20.25
2023-04-14T01:41:33.182Z,20.25
2023-04-14T01:42:33.199Z,20.33
2023-04-14T01:43:33.533Z,20.30
2023-04-14T01:44:33.258Z,20.26
2023-04-14T01:45:33.337Z,20.33
2023-04-14T01:46:33.315Z,20.25
2023-04-14T01:47:33.426Z,20.26
2023-04-14T01:48:33.381Z,20.25
2023-04-14T01:49:33.450Z,20.22
2023-04-14T01:51:33.766Z,20.25
2023-04-14T01:52:33.493Z,20.19
2023-04-14T01:54:33.548Z,20.27
2023-04-14T01:56:33.610Z,20.16
2023-04-14T01:57:33.650Z,20.20
2023-04-14T01:59:34.000Z,20.22
2023-04-14T02:04:40.163Z,20.13
2023-04-14T02:05:33.895Z,20.13
2023-04-14T02:06:34.213Z,20.12
2023-04-14T02:09:34.010Z,20.16
2023-04-14T02:10:34.015Z,20.15
2023-04-14T02:11:34.052Z,20.15
2023-04-14T02:12:34.084Z,20.16
2023-04-14T02:13:34.432Z,20.16
2023-04-14T02:16:34.243Z,20.13
2023-04-14T02:17:34.259Z,20.16
2023-04-14T02:18:34.252Z,20.15
2023-04-14T02:19:34.283Z,20.16
2023-04-14T02:20:34.729Z,20.16
2023-04-14T02:21:34.342Z,20.15
2023-04-14T02:22:34.363Z,20.19
2023-04-14T02:23:34.404Z,20.17
2023-04-14T02:24:34.435Z,20.15
2023-04-14T02:25:34.461Z,20.04
2023-04-14T02:26:34.506Z,20.10
2023-04-14T02:27:34.813Z,20.10
2023-04-14T02:29:34.578Z,20.10
2023-04-14T02:30:34.628Z,20.13
2023-04-14T02:32:34.687Z,20.08
2023-04-14T02:33:34.687Z,20.12
2023-04-14T02:34:37.454Z,20.07
2023-04-14T02:35:34.755Z,20.01
2023-04-14T02:36:34.794Z,20.12
2023-04-14T02:37:34.829Z,20.04
2023-04-14T02:38:34.831Z,20.02
2023-04-14T02:39:34.863Z,20.12
2023-04-14T02:41:35.223Z,20.00
2023-04-14T02:42:34.961Z,20.05
2023-04-14T02:43:34.984Z,20.07
2023-04-14T02:44:35.009Z,20.04
2023-04-14T02:46:35.098Z,20.07
2023-04-14T02:47:35.130Z,20.01
2023-04-14T02:48:35.424Z,20.07
2023-04-14T02:49:35.165Z,19.98
2023-04-14T02:50:35.402Z,20.05
2023-04-14T02:51:35.224Z,20.05
2023-04-14T02:52:35.280Z,20.01
2023-04-14T02:53:35.273Z,20.02
2023-04-14T02:55:35.630Z,19.90
2023-04-14T02:56:35.372Z,19.95
2023-04-14T02:57:35.384Z,19.92
2023-04-14T02:58:35.422Z,19.90
2023-04-14T02:59:35.446Z,19.94
2023-04-14T03:01:35.812Z,19.92
2023-04-14T03:02:35.612Z,19.97
2023-04-14T03:03:35.624Z,20.02
2023-04-14T03:04:35.786Z,19.95
2023-04-14T03:05:35.624Z,19.90
2023-04-14T03:06:35.651Z,19.94
2023-04-14T03:07:35.681Z,19.94
2023-04-14T03:08:36.034Z,19.92
2023-04-14T03:09:35.745Z,19.87
2023-04-14T03:10:35.770Z,19.89
2023-04-14T03:12:35.838Z,19.94
2023-04-14T03:13:35.865Z,19.94
2023-04-14T03:14:36.135Z,19.89
2023-04-14T03:16:35.960Z,19.87
2023-04-14T03:17:36.010Z,19.95
2023-04-14T03:19:36.035Z,19.92
2023-04-14T03:21:36.336Z,19.92
2023-04-14T03:22:36.132Z,19.90
2023-04-14T03:25:36.225Z,19.94
2023-04-14T03:27:36.560Z,19.92
2023-04-14T03:28:38.174Z,19.90
2023-04-14T03:31:36.455Z,19.87
2023-04-14T03:32:36.449Z,19.90
2023-04-14T03:33:36.737Z,19.87
2023-04-14T03:34:36.465Z,19.89
2023-04-14T03:39:36.875Z,19.90
2023-04-14T03:40:36.642Z,19.89
2023-04-14T03:41:36.741Z,19.90
2023-04-14T03:42:36.696Z,19.83
2023-04-14T03:44:36.755Z,19.82
2023-04-14T03:45:36.783Z,19.86
2023-04-14T03:46:37.058Z,19.85
2023-04-14T03:47:36.892Z,19.80
2023-04-14T03:48:36.866Z,19.80
2023-04-14T03:49:36.907Z,19.89
2023-04-14T03:50:36.950Z,19.80
2023-04-14T03:51:36.960Z,19.86
2023-04-14T03:53:37.314Z,19.85
2023-04-14T03:54:37.050Z,19.80
2023-04-14T03:55:37.075Z,19.78
2023-04-14T03:56:37.098Z,19.79
2023-04-14T03:57:37.149Z,19.82
2023-04-14T03:58:37.163Z,19.76
2023-04-14T03:59:37.190Z,19.86
2023-04-14T04:00:37.517Z,19.82
2023-04-14T04:01:37.273Z,19.78
2023-04-14T04:02:37.515Z,19.87
2023-04-14T04:03:37.602Z,19.82
2023-04-14T04:04:37.450Z,19.80
2023-04-14T04:05:37.360Z,19.75
2023-04-14T04:06:37.402Z,19.76
2023-04-14T04:07:37.717Z,19.82
2023-04-14T04:09:37.481Z,19.78
2023-04-14T04:12:37.564Z,19.83
2023-04-14T04:13:37.622Z,19.78
2023-04-14T04:14:39.213Z,19.78
2023-04-14T04:16:37.711Z,19.70
2023-04-14T04:18:37.742Z,19.80
2023-04-14T04:19:37.766Z,19.68
2023-04-14T04:20:37.800Z,19.80
2023-04-14T04:21:38.132Z,19.79
2023-04-14T04:22:37.856Z,19.78
2023-04-14T04:24:37.914Z,19.78
2023-04-14T04:25:37.937Z,19.83
2023-04-14T04:26:37.982Z,19.78
2023-04-14T04:28:38.277Z,19.70
2023-04-14T04:29:38.080Z,19.83
2023-04-14T04:30:38.091Z,19.80
2023-04-14T04:31:38.140Z,19.78
2023-04-14T04:32:38.194Z,19.78
2023-04-14T04:35:38.536Z,19.79
2023-04-14T04:36:38.262Z,19.75
2023-04-14T04:37:38.290Z,19.75
2023-04-14T04:38:38.316Z,19.78
2023-04-14T04:39:38.345Z,19.75
2023-04-14T04:40:38.403Z,19.72
2023-04-14T04:41:38.713Z,19.76
2023-04-14T04:42:38.433Z,19.71
2023-04-14T04:43:38.498Z,19.78
2023-04-14T04:44:38.491Z,19.72
2023-04-14T04:45:38.552Z,19.71
2023-04-14T04:46:38.620Z,19.79
2023-04-14T04:47:38.904Z,19.72
2023-04-14T04:48:38.611Z,19.71
2023-04-14T04:51:38.703Z,19.70
2023-04-14T04:53:39.057Z,19.79
2023-04-14T04:54:38.792Z,19.79
2023-04-14T04:55:38.807Z,19.76
2023-04-14T04:56:38.842Z,19.75
2023-04-14T04:57:38.869Z,19.70
2023-04-14T04:59:39.196Z,19.82
2023-04-14T05:00:38.959Z,19.75
2023-04-14T05:01:39.062Z,19.75
2023-04-14T05:02:39.103Z,19.75
2023-04-14T05:03:39.039Z,19.70
2023-04-14T05:05:39.411Z,19.76
2023-04-14T05:06:39.131Z,19.71
2023-04-14T05:07:39.153Z,19.76
2023-04-14T05:08:39.187Z,19.68
2023-04-14T05:09:39.225Z,19.65
2023-04-14T05:10:39.241Z,19.72
2023-04-14T05:11:39.268Z,19.72
2023-04-14T05:13:39.647Z,19.72
2023-04-14T05:14:39.368Z,19.76
2023-04-14T05:15:39.422Z,19.78
2023-04-14T05:16:39.423Z,19.76
2023-04-14T05:17:39.511Z,19.71
2023-04-14T05:18:39.476Z,19.79
2023-04-14T05:19:39.503Z,19.71
2023-04-14T05:20:39.831Z,19.76
2023-04-14T05:21:39.565Z,19.67
2023-04-14T05:23:39.659Z,19.80
2023-04-14T05:24:39.650Z,19.68
2023-04-14T05:25:39.675Z,19.75
2023-04-14T05:27:40.036Z,19.80
2023-04-14T05:28:39.761Z,19.75
2023-04-14T05:29:39.890Z,19.76
2023-04-14T05:30:39.821Z,19.79
2023-04-14T05:32:39.899Z,19.75
2023-04-14T05:33:39.927Z,19.79
2023-04-14T05:35:40.295Z,19.75
2023-04-14T05:36:40.005Z,19.75
2023-04-14T05:37:40.023Z,19.71
2023-04-14T05:38:40.131Z,19.76
2023-04-14T05:39:40.080Z,19.72
2023-04-14T05:41:40.443Z,19.75
2023-04-14T05:43:40.201Z,19.79
2023-04-14T05:44:40.226Z,19.78
2023-04-14T05:45:40.258Z,19.83
2023-04-14T05:46:40.357Z,19.72
2023-04-14T05:50:40.722Z,19.75
2023-04-14T05:51:40.434Z,19.86
2023-04-14T05:52:40.450Z,19.78
2023-04-14T05:53:40.484Z,19.79
2023-04-14T05:54:42.562Z,19.80
2023-04-14T05:55:40.553Z,19.78
2023-04-14T05:56:40.575Z,19.76
2023-04-14T05:57:40.860Z,19.80
2023-04-14T05:58:40.635Z,19.82
2023-04-14T05:59:40.653Z,19.75
2023-04-14T06:00:40.687Z,19.83
2023-04-14T06:01:40.769Z,19.79
2023-04-14T06:02:40.935Z,19.79
2023-04-14T06:03:41.061Z,19.82
2023-04-14T06:04:41.245Z,19.82
2023-04-14T06:05:40.834Z,19.79
2023-04-14T06:06:40.889Z,19.82
2023-04-14T06:08:40.931Z,19.79
2023-04-14T06:09:40.946Z,19.80
2023-04-14T06:10:40.993Z,19.85
2023-04-14T06:11:41.272Z,19.80
2023-04-14T06:12:41.049Z,19.79
2023-04-14T06:13:41.161Z,19.86
2023-04-14T06:14:41.100Z,19.79
2023-04-14T06:15:41.126Z,19.80
2023-04-14T06:16:41.179Z,19.79
2023-04-14T06:17:41.245Z,19.87
2023-04-14T06:18:41.530Z,19.85
2023-04-14T06:19:41.285Z,19.80
2023-04-14T06:20:41.266Z,19.82
2023-04-14T06:21:41.308Z,19.82
2023-04-14T06:22:41.341Z,19.82
2023-04-14T06:24:41.684Z,19.82
2023-04-14T06:25:41.407Z,19.94
2023-04-14T06:26:41.445Z,19.90
2023-04-14T06:27:41.471Z,19.94
2023-04-14T06:28:43.707Z,19.95
2023-04-14T06:29:41.524Z,19.90
2023-04-14T06:30:41.554Z,19.90
2023-04-14T06:31:41.923Z,19.86
2023-04-14T06:32:41.679Z,19.92
2023-04-14T06:34:41.674Z,19.89
2023-04-14T06:35:41.717Z,19.92
2023-04-14T06:37:42.060Z,19.89
2023-04-14T06:38:41.810Z,19.92
2023-04-14T06:39:41.812Z,19.90
2023-04-14T06:40:41.852Z,19.94
2023-04-14T06:41:41.900Z,19.92
2023-04-14T06:42:41.911Z,19.92
2023-04-14T06:43:42.248Z,19.92
2023-04-14T06:44:41.954Z,19.94
2023-04-14T06:45:42.098Z,19.90
2023-04-14T06:46:42.024Z,19.94
2023-04-14T06:47:42.061Z,19.94
2023-04-14T06:48:42.085Z,19.94
2023-04-14T06:49:42.402Z,20.04
2023-04-14T06:50:44.201Z,20.01
2023-04-14T06:52:42.191Z,19.97
2023-04-14T06:53:42.222Z,20.02
2023-04-14T06:54:42.333Z,20.02
2023-04-14T06:55:42.286Z,20.04
2023-04-14T06:56:42.607Z,20.02
2023-04-14T06:57:42.338Z,20.05
2023-04-14T06:58:42.410Z,20.04
2023-04-14T06:59:42.411Z,20.15
2023-04-14T07:00:42.593Z,20.04
2023-04-14T07:01:42.566Z,20.07
2023-04-14T07:02:42.555Z,20.12
2023-04-14T07:03:42.869Z,20.10
2023-04-14T07:04:42.570Z,20.02
2023-04-14T07:05:42.567Z,20.05
2023-04-14T07:06:42.594Z,20.05
2023-04-14T07:07:42.623Z,20.05
2023-04-14T07:08:42.649Z,20.12
2023-04-14T07:09:42.697Z,20.02
2023-04-14T07:10:43.030Z,20.04
2023-04-14T07:11:42.746Z,20.01
2023-04-14T07:12:42.777Z,20.05
2023-04-14T07:13:42.799Z,20.05
2023-04-14T07:14:42.867Z,20.13
2023-04-14T07:15:42.889Z,20.04
2023-04-14T07:16:42.880Z,20.13
2023-04-14T07:17:43.247Z,20.10
2023-04-14T07:18:42.958Z,20.17
2023-04-14T07:19:42.970Z,20.16
2023-04-14T07:20:43.007Z,20.16
2023-04-14T07:21:43.030Z,20.13
2023-04-14T07:22:43.057Z,20.17
2023-04-14T07:23:43.090Z,20.19
2023-04-14T07:24:43.410Z,20.17
2023-04-14T07:25:43.143Z,20.19
2023-04-14T07:26:43.202Z,20.16
2023-04-14T07:27:49.919Z,20.16
2023-04-14T07:28:43.240Z,20.15
2023-04-14T07:29:43.320Z,20.16
2023-04-14T07:30:43.290Z,20.17
2023-04-14T07:31:43.793Z,20.20
2023-04-14T07:32:43.400Z,20.17
2023-04-14T07:33:43.395Z,20.15
2023-04-14T07:34:43.492Z,20.20
2023-04-14T07:35:51.145Z,20.22
2023-04-14T07:36:43.471Z,20.16
2023-04-14T07:37:43.497Z,20.16
2023-04-14T07:38:43.870Z,20.17
2023-04-14T07:39:43.578Z,20.15
2023-04-14T07:40:43.579Z,20.20
2023-04-14T07:41:43.610Z,20.19
2023-04-14T07:42:43.669Z,20.19
2023-04-14T07:43:43.674Z,20.20
2023-04-14T07:44:43.709Z,20.20
2023-04-14T07:46:44.419Z,20.22
2023-04-14T07:47:43.834Z,20.25
2023-04-14T07:48:43.844Z,20.19
2023-04-14T07:49:43.871Z,20.26
2023-04-14T07:50:43.878Z,20.30
2023-04-14T07:51:43.933Z,20.27
2023-04-14T07:52:43.941Z,20.30
2023-04-14T07:53:44.281Z,20.33
2023-04-14T07:54:44.006Z,20.34
2023-04-14T07:55:44.030Z,20.37
2023-04-14T07:56:44.046Z,20.34
2023-04-14T07:57:44.079Z,20.31
2023-04-14T07:58:44.251Z,20.35
2023-04-14T07:59:44.139Z,20.34
2023-04-14T08:00:44.466Z,20.30
2023-04-14T08:01:44.311Z,20.31
2023-04-14T08:02:44.397Z,20.26
2023-04-14T08:03:45.574Z,20.31
2023-04-14T08:04:44.288Z,20.33
2023-04-14T08:05:44.345Z,20.31
2023-04-14T08:06:44.380Z,20.33
2023-04-14T08:08:44.695Z,20.33
2023-04-14T08:09:44.437Z,20.38
2023-04-14T08:10:44.463Z,20.33
2023-04-14T08:11:44.505Z,20.31
2023-04-14T08:12:44.514Z,20.35
2023-04-14T08:13:44.551Z,20.38
2023-04-14T08:14:44.691Z,20.42
2023-04-14T08:15:44.974Z,20.40
2023-04-14T08:16:44.650Z,20.38
2023-04-14T08:17:44.772Z,20.44
2023-04-14T08:18:44.755Z,20.44
2023-04-14T08:19:44.756Z,20.42
2023-04-14T08:21:44.773Z,20.48
2023-04-14T08:22:45.104Z,20.41
2023-04-14T08:23:44.838Z,20.48
2023-04-14T08:24:44.864Z,20.38
2023-04-14T08:25:44.918Z,20.46
2023-04-14T08:27:44.963Z,20.53
2023-04-14T08:28:44.983Z,20.50
2023-04-14T08:29:45.309Z,20.42
2023-04-14T08:30:45.069Z,20.50
2023-04-14T08:31:45.142Z,20.46
2023-04-14T08:33:45.126Z,20.46
2023-04-14T08:35:37.705Z,20.46
2023-04-14T08:35:45.199Z,20.44
2023-04-14T08:36:45.519Z,20.46
2023-04-14T08:37:45.247Z,20.41
2023-04-14T08:38:45.272Z,20.48
2023-04-14T08:39:45.303Z,20.51
2023-04-14T08:40:45.335Z,20.54
2023-04-14T08:41:45.381Z,20.51
2023-04-14T08:42:45.398Z,20.56
2023-04-14T08:43:45.731Z,20.57
2023-04-14T08:44:45.457Z,20.57
2023-04-14T08:45:45.578Z,20.61
2023-04-14T08:46:45.536Z,20.56
2023-04-14T08:47:45.557Z,20.57
2023-04-14T08:48:45.587Z,20.58
2023-04-14T08:49:45.598Z,20.56
2023-04-14T08:50:45.955Z,20.60
2023-04-14T08:51:45.661Z,20.58
2023-04-14T08:52:45.691Z,20.61
2023-04-14T08:53:45.775Z,20.60
2023-04-14T08:54:45.760Z,20.61
2023-04-14T08:55:45.806Z,20.61
2023-04-14T08:56:45.814Z,20.60
2023-04-14T08:58:45.969Z,20.57
2023-04-14T08:59:45.899Z,20.61
2023-04-14T09:00:45.968Z,20.60
2023-04-14T09:01:46.108Z,20.63
2023-04-14T09:02:46.262Z,20.63
2023-04-14T09:03:46.294Z,20.64
2023-04-14T09:04:46.406Z,20.60
2023-04-14T09:05:46.078Z,20.63
2023-04-14T09:06:46.109Z,20.68
2023-04-14T09:07:46.144Z,20.73
2023-04-14T09:08:46.196Z,20.66
2023-04-14T09:09:46.197Z,20.63
2023-04-14T09:10:46.230Z,20.69
2023-04-14T09:11:46.510Z,20.69
2023-04-14T09:12:46.287Z,20.73
2023-04-14T09:13:46.311Z,20.73
2023-04-14T09:14:46.359Z,20.75
2023-04-14T09:15:46.378Z,20.60
2023-04-14T09:16:46.429Z,20.73
2023-04-14T09:17:46.558Z,20.61
2023-04-14T09:18:47.245Z,20.69
2023-04-14T09:20:36.616Z,20.64
2023-04-14T09:20:46.550Z,20.73
2023-04-14T09:21:53.482Z,20.72
2023-04-14T09:22:46.595Z,20.71
2023-04-14T09:23:46.609Z,20.69
2023-04-14T09:24:46.942Z,20.71
2023-04-14T09:25:46.674Z,20.68
2023-04-14T09:26:46.716Z,20.71
2023-04-14T09:27:46.737Z,20.64
2023-04-14T09:28:46.755Z,20.73
2023-04-14T09:29:46.791Z,20.78
2023-04-14T09:30:47.124Z,20.75
2023-04-14T09:31:46.856Z,20.79
2023-04-14T09:32:46.936Z,20.82
2023-04-14T09:33:46.938Z,20.81
2023-04-14T09:34:46.955Z,20.75
2023-04-14T09:35:46.967Z,20.78
2023-04-14T09:36:47.340Z,20.79
2023-04-14T09:37:47.025Z,20.83
2023-04-14T09:38:47.064Z,20.81
2023-04-14T09:39:47.087Z,20.79
2023-04-14T09:41:47.147Z,20.85
2023-04-14T09:42:47.202Z,20.88
2023-04-14T09:43:47.507Z,20.83
2023-04-14T09:44:47.254Z,20.85
2023-04-14T09:45:47.298Z,20.85
2023-04-14T09:46:47.382Z,20.87
2023-04-14T09:47:47.338Z,20.91
2023-04-14T09:48:47.348Z,20.87
2023-04-14T09:49:47.429Z,20.88
2023-04-14T09:50:47.733Z,20.90
2023-04-14T09:51:47.444Z,20.97
2023-04-14T09:52:47.472Z,20.93
2023-04-14T09:53:48.755Z,20.91
2023-04-14T09:54:47.536Z,20.90
2023-04-14T09:56:47.593Z,20.98
2023-04-14T09:57:47.975Z,20.98
2023-04-14T09:58:47.654Z,20.88
2023-04-14T09:59:47.684Z,20.91
2023-04-14T10:00:47.709Z,20.98
2023-04-14T10:01:47.817Z,20.97
2023-04-14T10:02:47.826Z,21.05
2023-04-14T10:03:48.010Z,20.97
2023-04-14T10:04:48.171Z,21.01
2023-04-14T10:05:47.862Z,21.00
2023-04-14T10:06:47.911Z,20.98
2023-04-14T10:07:47.919Z,21.03
2023-04-14T10:08:47.948Z,21.06
2023-04-14T10:09:47.981Z,21.05
2023-04-14T10:10:48.010Z,21.00
2023-04-14T10:11:48.343Z,21.06
2023-04-14T10:12:48.068Z,21.00
2023-04-14T10:13:48.097Z,21.01
2023-04-14T10:14:48.143Z,21.06
2023-04-14T10:15:48.177Z,21.03
2023-04-14T10:16:48.188Z,21.11
2023-04-14T10:17:48.243Z,21.01
2023-04-14T10:18:48.656Z,21.00
2023-04-14T10:19:48.284Z,21.03
2023-04-14T10:20:48.308Z,21.09
2023-04-14T10:21:48.369Z,21.05
2023-04-14T10:22:48.399Z,21.06
2023-04-14T10:23:48.427Z,21.09
2023-04-14T10:24:48.432Z,21.09
2023-04-14T10:25:48.472Z,21.15
2023-04-14T10:27:48.525Z,21.13
2023-04-14T10:28:48.558Z,21.16
2023-04-14T10:29:48.579Z,21.11
2023-04-14T10:30:48.611Z,21.16
2023-04-14T10:31:48.726Z,21.26
2023-04-14T10:32:48.731Z,21.08
2023-04-14T10:33:48.780Z,21.21
2023-04-14T10:34:48.732Z,21.15
2023-04-14T10:35:48.764Z,21.19
2023-04-14T10:36:48.797Z,21.19
2023-04-14T10:37:49.073Z,21.16
2023-04-14T10:38:48.881Z,21.22
2023-04-14T10:39:48.878Z,21.26
2023-04-14T10:40:48.918Z,21.21
2023-04-14T10:41:49.020Z,21.12
2023-04-14T10:42:48.978Z,21.19
2023-04-14T10:43:49.253Z,21.21
2023-04-14T10:44:49.036Z,21.16
2023-04-14T10:45:49.557Z,21.16
2023-04-14T10:46:49.143Z,21.27
2023-04-14T10:47:49.147Z,21.13
2023-04-14T10:48:49.155Z,21.31
2023-04-14T10:49:49.489Z,21.26
2023-04-14T10:51:49.931Z,21.22
2023-04-14T10:52:49.277Z,21.28
2023-04-14T10:53:49.313Z,21.24
2023-04-14T10:54:49.354Z,21.30
2023-04-14T10:55:52.344Z,21.34
2023-04-14T10:56:49.695Z,21.33
2023-04-14T10:57:49.433Z,21.30
2023-04-14T10:58:49.456Z,21.30
2023-04-14T10:59:49.488Z,21.33
2023-04-14T11:00:49.551Z,21.31
2023-04-14T11:01:49.607Z,21.33
2023-04-14T11:02:49.682Z,21.31
2023-04-14T11:03:49.983Z,21.33
2023-04-14T11:04:49.644Z,21.31
2023-04-14T11:05:49.669Z,21.33
2023-04-14T11:06:49.703Z,21.33
2023-04-14T11:07:49.734Z,21.37
2023-04-14T11:08:49.770Z,21.31
2023-04-14T11:09:49.816Z,21.31
2023-04-14T11:10:50.103Z,21.34
2023-04-14T11:11:49.854Z,21.36
2023-04-14T11:13:49.913Z,21.38
2023-04-14T11:14:49.943Z,21.46
2023-04-14T11:15:49.975Z,21.38
2023-04-14T11:17:02.484Z,21.45
2023-04-14T11:17:50.164Z,21.46
2023-04-14T11:18:50.069Z,21.46
2023-04-14T11:19:50.099Z,21.43
2023-04-14T11:20:50.132Z,21.48
2023-04-14T11:21:50.274Z,21.48
2023-04-14T11:22:50.204Z,21.43
2023-04-14T11:23:50.520Z,21.46
2023-04-14T11:24:50.248Z,21.48
2023-04-14T11:25:50.280Z,21.52
2023-04-14T11:26:50.334Z,21.42
2023-04-14T11:27:50.356Z,21.52
2023-04-14T11:28:50.371Z,21.55
2023-04-14T11:29:50.423Z,21.49
2023-04-14T11:30:50.736Z,21.56
2023-04-14T11:31:50.583Z,21.52
2023-04-14T11:32:50.532Z,21.58
2023-04-14T11:33:50.529Z,21.49
2023-04-14T11:34:50.559Z,21.55
2023-04-14T11:35:50.684Z,21.58
2023-04-14T11:36:50.627Z,21.58
2023-04-14T11:37:50.965Z,21.53
2023-04-14T11:38:50.687Z,21.59
2023-04-14T11:39:50.715Z,21.55
2023-04-14T11:40:50.766Z,21.64
2023-04-14T11:41:50.781Z,21.58
2023-04-14T11:42:50.821Z,21.56
2023-04-14T11:43:50.844Z,21.55
2023-04-14T11:44:51.111Z,21.55
2023-04-14T11:45:50.920Z,21.64
2023-04-14T11:46:50.920Z,21.63
2023-04-14T11:47:50.970Z,21.55
2023-04-14T11:48:50.986Z,21.64
2023-04-14T11:49:51.019Z,21.58
2023-04-14T11:50:51.056Z,21.61
2023-04-14T11:51:51.390Z,21.58
2023-04-14T11:52:51.111Z,21.61
2023-04-14T11:53:51.138Z,21.64
2023-04-14T11:54:51.259Z,21.63
2023-04-14T11:56:51.242Z,21.64
2023-04-14T11:57:51.273Z,21.67
2023-04-14T11:58:51.617Z,21.67
2023-04-14T11:59:51.325Z,21.67
2023-04-14T12:00:52.992Z,21.71
2023-04-14T12:01:51.429Z,21.68
2023-04-14T12:02:51.621Z,21.67
2023-04-14T12:03:51.620Z,21.68
2023-04-14T12:04:51.831Z,21.68
2023-04-14T12:05:51.820Z,21.71
2023-04-14T12:06:52.274Z,21.70
2023-04-14T12:07:51.673Z,21.70
2023-04-14T12:08:51.606Z,21.73
2023-04-14T12:09:51.660Z,21.77
2023-04-14T12:10:51.699Z,21.73
2023-04-14T12:11:51.947Z,21.71
2023-04-14T12:12:51.738Z,21.68
2023-04-14T12:13:51.768Z,21.71
2023-04-14T12:14:51.917Z,21.77
2023-04-14T12:15:51.869Z,21.74
2023-04-14T12:16:51.864Z,21.77
2023-04-14T12:17:53.123Z,21.74
2023-04-14T12:18:51.920Z,21.73
2023-04-14T12:19:51.948Z,21.79
2023-04-14T12:20:51.990Z,21.75
2023-04-14T12:21:52.061Z,21.82
2023-04-14T12:22:52.036Z,21.75
2023-04-14T12:23:52.322Z,21.82
2023-04-14T12:24:52.095Z,21.85
2023-04-14T12:25:52.140Z,21.82
2023-04-14T12:27:53.100Z,21.81
2023-04-14T12:28:52.877Z,21.75
2023-04-14T12:29:52.277Z,21.89
2023-04-14T12:30:52.603Z,21.89
2023-04-14T12:31:52.375Z,21.85
2023-04-14T12:32:52.362Z,21.90
2023-04-14T12:33:53.790Z,21.77
2023-04-14T12:34:52.425Z,21.85
2023-04-14T12:37:52.806Z,21.85
2023-04-14T12:38:52.545Z,21.86
2023-04-14T12:40:52.596Z,21.86
2023-04-14T12:41:52.650Z,21.94
2023-04-14T12:43:52.998Z,21.93
2023-04-14T12:44:52.726Z,21.96
2023-04-14T12:45:52.753Z,21.93
2023-04-14T12:46:52.953Z,21.93
2023-04-14T12:47:52.899Z,21.91
2023-04-14T12:48:52.847Z,21.85
2023-04-14T12:49:52.875Z,21.85
2023-04-14T12:50:53.201Z,21.91
2023-04-14T12:51:52.950Z,21.90
2023-04-14T12:52:52.963Z,21.96
2023-04-14T12:53:53.002Z,21.93
2023-04-14T12:54:53.035Z,21.93
2023-04-14T12:55:53.060Z,21.86
2023-04-14T12:56:53.200Z,21.90
2023-04-14T12:57:53.439Z,21.91
2023-04-14T12:58:53.162Z,21.93
2023-04-14T12:59:53.187Z,22.01
2023-04-14T13:00:53.239Z,21.98
2023-04-14T13:01:53.316Z,22.02
2023-04-14T13:02:53.424Z,22.01
2023-04-14T13:03:53.492Z,22.01
2023-04-14T13:04:53.645Z,22.04
2023-04-14T13:05:53.380Z,22.01
2023-04-14T13:06:53.400Z,22.05
2023-04-14T13:08:53.515Z,22.02
2023-04-14T13:09:53.512Z,22.02
2023-04-14T13:10:53.539Z,22.06
2023-04-14T13:11:53.870Z,22.11
2023-04-14T13:12:53.598Z,22.04
2023-04-14T13:13:53.933Z,22.06
2023-04-14T13:14:53.650Z,22.09
2023-04-14T13:16:54.709Z,22.06
2023-04-14T13:17:53.760Z,22.11
2023-04-14T13:18:54.101Z,22.14
2023-04-14T13:19:53.825Z,22.23
2023-04-14T13:20:53.837Z,22.24
2023-04-14T13:21:53.872Z,22.17
2023-04-14T13:22:53.897Z,22.17
2023-04-14T13:23:53.938Z,22.17
2023-04-14T13:24:53.957Z,22.21
2023-04-14T13:25:54.248Z,22.20
2023-04-14T13:26:54.031Z,22.24
2023-04-14T13:27:54.068Z,22.26
2023-04-14T13:28:54.089Z,22.24
2023-04-14T13:29:54.151Z,22.26
2023-04-14T13:30:54.147Z,22.27
2023-04-14T13:31:54.456Z,22.31
2023-04-14T13:32:54.271Z,22.30
2023-04-14T13:33:54.259Z,22.24
2023-04-14T13:34:54.300Z,22.26
2023-04-14T13:35:54.314Z,22.39
2023-04-14T13:36:54.347Z,22.44
2023-04-14T13:37:54.729Z,22.39
2023-04-14T13:38:54.411Z,22.35
2023-04-14T13:39:54.439Z,22.36
2023-04-14T13:40:54.483Z,22.42
2023-04-14T13:41:54.501Z,22.48
2023-04-14T13:42:54.538Z,22.46
2023-04-14T13:43:54.886Z,22.46
2023-04-14T13:44:54.593Z,22.46
2023-04-14T13:45:54.706Z,22.41
2023-04-14T13:46:54.704Z,22.46
2023-04-14T13:47:54.761Z,22.46
2023-04-14T13:48:54.719Z,22.49
2023-04-14T13:49:55.057Z,22.57
2023-04-14T13:50:55.102Z,22.63
2023-04-14T13:51:54.832Z,22.59
2023-04-14T13:52:54.863Z,22.59
2023-04-14T13:53:54.885Z,22.63
2023-04-14T13:54:55.010Z,22.63
2023-04-14T13:56:54.980Z,22.67
2023-04-14T13:57:55.385Z,22.69
2023-04-14T13:58:55.064Z,22.78
2023-04-14T13:59:55.080Z,22.60
2023-04-14T14:00:55.154Z,22.64
2023-04-14T14:02:55.245Z,22.74
2023-04-14T14:03:55.652Z,22.74
2023-04-14T14:04:55.530Z,22.82
2023-04-14T14:05:55.257Z,22.86
2023-04-14T14:06:55.306Z,22.85
2023-04-14T14:07:55.336Z,22.86
2023-04-14T14:08:55.358Z,22.88
2023-04-14T14:10:55.739Z,22.85
2023-04-14T14:11:55.452Z,22.85
2023-04-14T14:12:55.482Z,22.88
2023-04-14T14:13:55.516Z,22.85
2023-04-14T14:15:55.610Z,22.88
2023-04-14T14:16:55.702Z,22.79
2023-04-14T14:17:55.971Z,22.85
2023-04-14T14:18:55.673Z,22.96
2023-04-14T14:20:55.738Z,22.93
2023-04-14T14:21:55.773Z,22.96
2023-04-14T14:22:55.816Z,23.09
2023-04-14T14:23:55.830Z,22.97
2023-04-14T14:25:06.942Z,23.03
2023-04-14T14:25:55.911Z,23.07
2023-04-14T14:27:55.975Z,23.07
2023-04-14T14:28:56.001Z,23.06
2023-04-14T14:29:56.027Z,23.06
2023-04-14T14:30:56.079Z,23.06
2023-04-14T14:31:56.455Z,23.16
2023-04-14T14:32:56.182Z,23.06
2023-04-14T14:33:56.155Z,23.11
2023-04-14T14:34:56.210Z,23.15
2023-04-14T14:35:56.220Z,23.01
2023-04-14T14:36:56.260Z,23.09
2023-04-14T14:37:56.285Z,23.15
2023-04-14T14:38:56.636Z,23.16
2023-04-14T14:39:56.344Z,23.16